createdAt,value
2023-01-21T00:04:38.257Z,-0.77
2023-01-21T00:09:42.577Z,-0.68
2023-01-21T00:14:48.453Z,-0.79
2023-01-21T00:20:09.338Z,-0.10
2023-01-21T00:25:16.844Z,-0.78
2023-01-21T00:30:25.120Z,-0.65
2023-01-21T00:35:43.944Z,-0.76
2023-01-21T00:40:48.471Z,-0.31
2023-01-21T00:45:54.482Z,-0.25
2023-01-21T00:51:01.013Z,-0.81
2023-01-21T00:56:08.180Z,-0.79
2023-01-21T01:01:16.436Z,-0.55
2023-01-21T01:06:22.679Z,-0.71
2023-01-21T01:11:28.928Z,-0.82
2023-01-21T01:16:34.835Z,-0.90
2023-01-21T01:21:39.254Z,-0.87
2023-01-21T01:26:43.773Z,-0.13
2023-01-21T01:31:49.608Z,-0.72
2023-01-21T01:36:53.533Z,-0.96
2023-01-21T01:41:57.796Z,-0.90
2023-01-21T01:47:06.062Z,-0.75
2023-01-21T01:52:13.102Z,-0.83
2023-01-21T01:57:22.067Z,-0.95
2023-01-21T02:02:27.863Z,-0.99
2023-01-21T02:07:39.592Z,-0.72
2023-01-21T02:12:45.506Z,-0.74
2023-01-21T02:18:06.649Z,-0.99
2023-01-21T02:23:18.434Z,-0.92
2023-01-21T02:29:00.609Z,-1.02
2023-01-21T02:34:15.510Z,-1.07
2023-01-21T02:39:36.220Z,-1.08
2023-01-21T02:44:42.669Z,-1.06
2023-01-21T02:49:53.859Z,-1.09
2023-01-21T02:54:59.063Z,-1.13
2023-01-21T03:00:06.482Z,-1.12
2023-01-21T03:05:24.180Z,-1.15
2023-01-21T03:10:35.220Z,-1.12
2023-01-21T03:16:03.588Z,0.18
2023-01-21T03:21:13.933Z,-0.93
2023-01-21T03:26:22.474Z,-0.88
2023-01-21T03:31:31.917Z,-0.98
2023-01-21T03:36:43.279Z,0.30
2023-01-21T03:41:47.807Z,1.70
2023-01-21T03:47:03.055Z,-0.15
2023-01-21T03:52:11.245Z,1.26
2023-01-21T03:57:15.579Z,-0.34
2023-01-21T04:02:20.668Z,-0.58
2023-01-21T04:07:27.618Z,0.16
2023-01-21T04:12:32.038Z,0.61
2023-01-21T04:17:36.287Z,0.10
2023-01-21T04:22:41.963Z,0.22
2023-01-21T04:27:46.251Z,1.83
2023-01-21T04:32:50.702Z,1.74
2023-01-21T04:37:56.491Z,0.50
2023-01-21T04:43:00.472Z,2.40
2023-01-21T04:48:04.852Z,1.56
2023-01-21T04:53:10.661Z,1.68
2023-01-21T04:58:14.760Z,2.67
2023-01-21T05:03:19.302Z,2.33
2023-01-21T05:08:25.606Z,2.82
2023-01-21T05:13:29.586Z,2.58
2023-01-21T05:18:33.942Z,2.82
2023-01-21T05:23:39.696Z,2.82
2023-01-21T05:28:43.943Z,2.64
2023-01-21T05:33:48.403Z,2.75
2023-01-21T05:38:54.097Z,3.03
2023-01-21T05:43:58.371Z,3.24
2023-01-21T05:49:02.733Z,3.07
2023-01-21T05:54:08.682Z,3.25
2023-01-21T05:59:13.374Z,3.08
2023-01-21T06:04:17.745Z,3.16
2023-01-21T06:09:23.660Z,3.33
2023-01-21T06:14:28.073Z,3.10
2023-01-21T06:19:32.395Z,2.79
2023-01-21T06:24:38.203Z,3.16
2023-01-21T06:29:42.540Z,3.08
2023-01-21T06:34:48.818Z,3.02
2023-01-21T06:39:55.821Z,2.88
2023-01-21T06:44:59.777Z,2.99
2023-01-21T06:50:04.280Z,2.86
2023-01-21T06:55:11.058Z,3.42
2023-01-21T07:00:16.510Z,2.77
2023-01-21T07:05:21.264Z,2.96
2023-01-21T07:10:27.452Z,2.95
2023-01-21T07:15:31.971Z,3.05
2023-01-21T07:20:36.529Z,3.07
2023-01-21T07:25:43.078Z,3.28
2023-01-21T07:30:48.122Z,3.15
2023-01-21T07:35:52.795Z,3.25
2023-01-21T07:40:59.040Z,3.52
2023-01-21T07:46:03.650Z,3.10
2023-01-21T07:51:08.512Z,3.28
2023-01-21T07:56:15.092Z,3.54
2023-01-21T08:01:19.852Z,3.47
2023-01-21T08:06:24.779Z,3.20
2023-01-21T08:11:30.800Z,3.17
2023-01-21T08:16:35.553Z,3.26
2023-01-21T08:21:40.405Z,3.03
2023-01-21T08:26:46.734Z,3.36
2023-01-21T08:31:52.496Z,3.37
2023-01-21T08:36:56.653Z,3.70
2023-01-21T08:42:02.752Z,3.62
2023-01-21T08:47:07.371Z,3.54
2023-01-21T08:52:12.266Z,3.87
2023-01-21T08:57:20.216Z,4.07
2023-01-21T09:02:24.964Z,4.41
2023-01-21T09:07:30.391Z,4.27
2023-01-21T09:12:38.399Z,4.10
2023-01-21T09:18:33.744Z,4.38
2023-01-21T09:24:04.703Z,5.27
2023-01-21T09:29:11.385Z,5.45
2023-01-21T09:34:18.447Z,5.42
2023-01-21T09:39:23.035Z,4.69
2023-01-21T09:44:33.476Z,4.76
2023-01-21T09:49:42.599Z,4.76
2023-01-21T09:54:47.219Z,4.67
2023-01-21T10:00:05.523Z,5.01
2023-01-21T10:05:40.535Z,4.92
2023-01-21T10:10:51.720Z,4.74
2023-01-21T10:16:06.635Z,4.90
2023-01-21T10:21:18.163Z,4.89
2023-01-21T10:26:23.578Z,5.33
2023-01-21T10:31:32.049Z,5.76
2023-01-21T10:36:53.470Z,5.00
2023-01-21T10:42:09.971Z,4.85
2023-01-21T10:47:27.783Z,4.52
2023-01-21T10:52:40.102Z,4.69
2023-01-21T10:57:56.696Z,4.47
2023-01-21T11:03:06.327Z,3.63
2023-01-21T11:08:20.151Z,3.37
2023-01-21T11:13:24.691Z,3.02
2023-01-21T11:18:34.752Z,3.10
2023-01-21T11:23:40.566Z,3.31
2023-01-21T11:28:46.060Z,4.32
2023-01-21T11:33:52.825Z,3.14
2023-01-21T11:39:03.374Z,2.57
2023-01-21T11:44:17.915Z,2.32
2023-01-21T11:49:30.302Z,3.25
2023-01-21T11:54:40.633Z,4.25
2023-01-21T11:59:48.717Z,4.16
2023-01-21T12:04:58.488Z,3.75
2023-01-21T12:10:09.128Z,3.81
2023-01-21T12:15:34.803Z,5.02
2023-01-21T12:20:50.972Z,4.78
2023-01-21T12:26:01.331Z,4.41
2023-01-21T12:31:23.768Z,4.81
2023-01-21T12:36:33.358Z,4.20
2023-01-21T12:41:40.673Z,4.49
2023-01-21T12:46:49.826Z,4.05
2023-01-21T12:51:59.129Z,3.84
2023-01-21T12:57:15.017Z,4.15
2023-01-21T13:02:25.310Z,4.35
2023-01-21T13:07:44.336Z,4.72
2023-01-21T13:12:53.249Z,4.98
2023-01-21T13:18:02.182Z,3.87
2023-01-21T13:23:18.633Z,4.26
2023-01-21T13:28:27.488Z,4.65
2023-01-21T13:33:43.466Z,5.13
2023-01-21T13:39:00.469Z,5.52
2023-01-21T13:44:37.711Z,4.74
2023-01-21T13:50:18.083Z,5.42
2023-01-21T13:55:39.665Z,5.04
2023-01-21T14:00:48.202Z,5.28
2023-01-21T14:05:58.720Z,5.19
2023-01-21T14:11:11.398Z,5.09
2023-01-21T14:16:36.458Z,5.19
2023-01-21T14:22:15.136Z,4.81
2023-01-21T14:27:33.541Z,4.93
2023-01-21T14:32:43.194Z,5.58
2023-01-21T14:37:55.545Z,5.36
2023-01-21T14:43:01.679Z,5.23
2023-01-21T14:48:29.992Z,5.57
2023-01-21T14:53:44.927Z,5.92
2023-01-21T14:58:53.843Z,5.22
2023-01-21T15:03:59.749Z,4.61
2023-01-21T15:09:06.101Z,4.60
2023-01-21T15:14:16.902Z,4.41
2023-01-21T15:19:30.471Z,5.04
2023-01-21T15:24:41.942Z,4.87
2023-01-21T15:30:08.860Z,4.95
2023-01-21T15:35:25.843Z,5.00
2023-01-21T15:40:38.489Z,4.83
2023-01-21T15:45:51.052Z,4.72
2023-01-21T15:51:02.325Z,4.99
2023-01-21T15:56:23.828Z,4.56
2023-01-21T16:01:44.020Z,5.04
2023-01-21T16:07:13.151Z,3.76
2023-01-21T16:12:26.070Z,3.36
2023-01-21T16:17:54.114Z,3.30
2023-01-21T16:23:02.374Z,3.94
2023-01-21T16:28:07.033Z,4.81
2023-01-21T16:33:20.989Z,4.98
2023-01-21T16:38:27.685Z,5.09
2023-01-21T16:43:33.081Z,5.16
2023-01-21T16:48:39.087Z,4.66
2023-01-21T16:53:43.862Z,4.25
2023-01-21T16:58:48.907Z,4.28
2023-01-21T17:03:55.612Z,4.67
2023-01-21T17:09:05.171Z,4.77
2023-01-21T17:14:11.584Z,4.94
2023-01-21T17:19:25.204Z,5.01
2023-01-21T17:24:32.520Z,5.13
2023-01-21T17:29:37.457Z,5.13
2023-01-21T17:34:43.878Z,4.96
2023-01-21T17:40:01.264Z,4.70
2023-01-21T17:45:07.616Z,4.27
2023-01-21T17:50:22.545Z,3.95
2023-01-21T17:55:31.735Z,3.58
2023-01-21T18:00:41.093Z,4.34
2023-01-21T18:05:47.072Z,4.23
2023-01-21T18:10:52.220Z,4.25
2023-01-21T18:15:56.729Z,4.18
2023-01-21T18:21:03.209Z,3.72
2023-01-21T18:26:15.160Z,3.59
2023-01-21T18:31:19.855Z,4.03
2023-01-21T18:36:25.935Z,4.08
2023-01-21T18:41:30.423Z,3.77
2023-01-21T18:46:39.583Z,4.23
2023-01-21T18:51:46.153Z,4.20
2023-01-21T18:56:50.680Z,4.54
2023-01-21T19:01:55.528Z,4.42
2023-01-21T19:07:01.501Z,3.98
2023-01-21T19:12:06.795Z,2.72
2023-01-21T19:17:13.732Z,3.55
2023-01-21T19:22:19.629Z,4.16
2023-01-21T19:27:26.711Z,3.80
2023-01-21T19:32:31.274Z,3.84
2023-01-21T19:37:40.218Z,4.19
2023-01-21T19:42:44.803Z,3.77
2023-01-21T19:47:52.547Z,3.30
2023-01-21T19:52:58.603Z,2.72
2023-01-21T19:58:05.264Z,3.27
2023-01-21T20:03:12.346Z,3.71
2023-01-21T20:08:21.859Z,3.81
2023-01-21T20:13:31.405Z,3.50
2023-01-21T20:18:35.992Z,2.88
2023-01-21T20:23:41.996Z,2.55
2023-01-21T20:28:51.511Z,3.05
2023-01-21T20:33:56.614Z,2.76
2023-01-21T20:39:02.595Z,2.91
2023-01-21T20:44:07.221Z,2.67
2023-01-21T20:49:12.520Z,1.63
2023-01-21T20:54:20.101Z,2.16
2023-01-21T20:59:24.707Z,2.31
2023-01-21T21:04:30.117Z,1.53
2023-01-21T21:09:36.447Z,1.98
2023-01-21T21:14:41.109Z,1.30
2023-01-21T21:19:45.585Z,1.00
2023-01-21T21:24:51.485Z,1.55
2023-01-21T21:29:59.304Z,1.42
2023-01-21T21:35:03.959Z,0.54
2023-01-21T21:40:12.033Z,0.53
2023-01-21T21:45:16.917Z,1.01
2023-01-21T21:50:21.429Z,0.89
2023-01-21T21:55:27.301Z,1.00
2023-01-21T22:00:31.774Z,0.78
2023-01-21T22:05:37.742Z,1.29
2023-01-21T22:10:43.722Z,2.38
2023-01-21T22:15:54.822Z,0.81
2023-01-21T22:21:01.547Z,0.78
2023-01-21T22:26:09.575Z,0.91
2023-01-21T22:31:17.111Z,0.80
2023-01-21T22:36:23.818Z,0.69
2023-01-21T22:41:30.047Z,0.49
2023-01-21T22:46:35.962Z,0.63
2023-01-21T22:51:40.243Z,0.79
2023-01-21T22:56:52.510Z,0.13
2023-01-21T23:01:57.271Z,0.73
2023-01-21T23:07:01.629Z,1.04
2023-01-21T23:12:09.261Z,1.56
2023-01-21T23:17:13.785Z,1.05
2023-01-21T23:22:18.137Z,1.07
2023-01-21T23:27:24.019Z,1.24
2023-01-21T23:32:28.470Z,0.77
2023-01-21T23:37:32.987Z,-0.03
2023-01-21T23:42:38.841Z,0.12
2023-01-21T23:47:43.300Z,0.07
2023-01-21T23:52:47.722Z,0.33
2023-01-21T23:57:53.502Z,0.41
